sensor_id;sensor_type;location;lat;lon;timestamp;P1;durP1;ratioP1;P2;durP2;ratioP2
13079;SDS011;6606;49.154;9.280;2023-02-08T00:02:32;22.80;;;14.23;;
13079;SDS011;6606;49.154;9.280;2023-02-08T00:05:13;22.13;;;14.20;;
13079;SDS011;6606;49.154;9.280;2023-02-08T00:07:56;21.40;;;13.90;;
13079;SDS011;6606;49.154;9.280;2023-02-08T00:10:38;25.57;;;13.90;;
13079;SDS011;6606;49.154;9.280;2023-02-08T00:13:20;22.40;;;13.43;;
13079;SDS011;6606;49.154;9.280;2023-02-08T00:16:02;24.17;;;14.70;;
13079;SDS011;6606;49.154;9.280;2023-02-08T00:18:44;21.50;;;12.77;;
13079;SDS011;6606;49.154;9.280;2023-02-08T00:21:26;20.67;;;13.23;;
13079;SDS011;6606;49.154;9.280;2023-02-08T00:24:09;24.40;;;13.60;;
13079;SDS011;6606;49.154;9.280;2023-02-08T00:26:51;22.67;;;14.07;;
13079;SDS011;6606;49.154;9.280;2023-02-08T00:29:33;23.70;;;13.30;;
13079;SDS011;6606;49.154;9.280;2023-02-08T00:32:15;21.60;;;13.67;;
13079;SDS011;6606;49.154;9.280;2023-02-08T00:34:57;22.83;;;14.37;;
13079;SDS011;6606;49.154;9.280;2023-02-08T00:37:38;22.00;;;13.90;;
13079;SDS011;6606;49.154;9.280;2023-02-08T00:40:22;21.73;;;13.83;;
13079;SDS011;6606;49.154;9.280;2023-02-08T00:43:04;19.10;;;12.33;;
13079;SDS011;6606;49.154;9.280;2023-02-08T00:45:46;24.40;;;13.50;;
13079;SDS011;6606;49.154;9.280;2023-02-08T00:48:28;19.60;;;12.97;;
13079;SDS011;6606;49.154;9.280;2023-02-08T00:51:13;21.57;;;13.40;;
13079;SDS011;6606;49.154;9.280;2023-02-08T00:53:55;23.53;;;13.60;;
13079;SDS011;6606;49.154;9.280;2023-02-08T00:56:38;21.27;;;13.70;;
13079;SDS011;6606;49.154;9.280;2023-02-08T00:59:20;23.40;;;13.77;;
13079;SDS011;6606;49.154;9.280;2023-02-08T01:02:01;20.13;;;13.40;;
13079;SDS011;6606;49.154;9.280;2023-02-08T01:04:43;21.03;;;13.27;;
13079;SDS011;6606;49.154;9.280;2023-02-08T01:07:26;21.50;;;13.13;;
13079;SDS011;6606;49.154;9.280;2023-02-08T01:10:08;23.93;;;14.50;;
13079;SDS011;6606;49.154;9.280;2023-02-08T01:12:52;21.47;;;13.13;;
13079;SDS011;6606;49.154;9.280;2023-02-08T01:15:34;23.77;;;15.13;;
13079;SDS011;6606;49.154;9.280;2023-02-08T01:18:16;25.63;;;14.53;;
13079;SDS011;6606;49.154;9.280;2023-02-08T01:21:02;22.40;;;13.13;;
13079;SDS011;6606;49.154;9.280;2023-02-08T01:23:45;22.00;;;12.47;;
13079;SDS011;6606;49.154;9.280;2023-02-08T01:26:27;22.87;;;13.83;;
13079;SDS011;6606;49.154;9.280;2023-02-08T01:29:10;27.27;;;13.67;;
13079;SDS011;6606;49.154;9.280;2023-02-08T01:31:52;23.83;;;13.80;;
13079;SDS011;6606;49.154;9.280;2023-02-08T01:34:34;24.77;;;13.23;;
13079;SDS011;6606;49.154;9.280;2023-02-08T01:37:18;26.63;;;14.43;;
13079;SDS011;6606;49.154;9.280;2023-02-08T01:40:00;25.30;;;14.57;;
13079;SDS011;6606;49.154;9.280;2023-02-08T01:42:43;22.23;;;13.07;;
13079;SDS011;6606;49.154;9.280;2023-02-08T01:45:26;21.00;;;12.97;;
13079;SDS011;6606;49.154;9.280;2023-02-08T01:48:11;27.33;;;14.00;;
13079;SDS011;6606;49.154;9.280;2023-02-08T01:50:57;24.53;;;13.50;;
13079;SDS011;6606;49.154;9.280;2023-02-08T01:53:42;24.67;;;14.13;;
13079;SDS011;6606;49.154;9.280;2023-02-08T01:56:25;24.97;;;14.90;;
13079;SDS011;6606;49.154;9.280;2023-02-08T01:59:11;23.13;;;13.80;;
13079;SDS011;6606;49.154;9.280;2023-02-08T02:01:56;22.50;;;13.77;;
13079;SDS011;6606;49.154;9.280;2023-02-08T02:04:40;21.60;;;12.40;;
13079;SDS011;6606;49.154;9.280;2023-02-08T02:07:24;24.23;;;13.67;;
13079;SDS011;6606;49.154;9.280;2023-02-08T02:10:09;23.57;;;12.70;;
13079;SDS011;6606;49.154;9.280;2023-02-08T02:12:55;23.40;;;12.80;;
13079;SDS011;6606;49.154;9.280;2023-02-08T02:15:43;24.30;;;13.87;;
13079;SDS011;6606;49.154;9.280;2023-02-08T02:18:27;23.50;;;14.67;;
13079;SDS011;6606;49.154;9.280;2023-02-08T02:24:35;24.33;;;14.03;;
13079;SDS011;6606;49.154;9.280;2023-02-08T02:27:37;21.03;;;12.23;;
13079;SDS011;6606;49.154;9.280;2023-02-08T02:33:55;22.00;;;12.90;;
13079;SDS011;6606;49.154;9.280;2023-02-08T02:36:44;22.67;;;13.10;;
13079;SDS011;6606;49.154;9.280;2023-02-08T02:39:33;25.23;;;13.80;;
13079;SDS011;6606;49.154;9.280;2023-02-08T02:42:21;21.63;;;13.27;;
13079;SDS011;6606;49.154;9.280;2023-02-08T02:45:29;25.33;;;14.23;;
13079;SDS011;6606;49.154;9.280;2023-02-08T02:48:17;22.90;;;13.17;;
13079;SDS011;6606;49.154;9.280;2023-02-08T02:51:05;24.97;;;14.20;;
13079;SDS011;6606;49.154;9.280;2023-02-08T02:53:51;24.87;;;13.90;;
13079;SDS011;6606;49.154;9.280;2023-02-08T02:56:38;22.63;;;12.47;;
13079;SDS011;6606;49.154;9.280;2023-02-08T02:59:22;21.00;;;12.87;;
13079;SDS011;6606;49.154;9.280;2023-02-08T03:02:05;23.53;;;13.03;;
13079;SDS011;6606;49.154;9.280;2023-02-08T03:04:49;21.23;;;13.13;;
13079;SDS011;6606;49.154;9.280;2023-02-08T03:07:43;22.47;;;12.67;;
13079;SDS011;6606;49.154;9.280;2023-02-08T03:13:59;25.00;;;13.00;;
13079;SDS011;6606;49.154;9.280;2023-02-08T03:16:50;26.07;;;14.27;;
13079;SDS011;6606;49.154;9.280;2023-02-08T03:19:44;22.20;;;13.00;;
13079;SDS011;6606;49.154;9.280;2023-02-08T03:22:36;23.50;;;12.27;;
13079;SDS011;6606;49.154;9.280;2023-02-08T03:25:26;25.53;;;14.60;;
13079;SDS011;6606;49.154;9.280;2023-02-08T03:28:17;25.57;;;13.27;;
13079;SDS011;6606;49.154;9.280;2023-02-08T03:31:06;23.23;;;12.93;;
13079;SDS011;6606;49.154;9.280;2023-02-08T03:33:56;23.47;;;12.83;;
13079;SDS011;6606;49.154;9.280;2023-02-08T03:36:43;25.13;;;13.80;;
13079;SDS011;6606;49.154;9.280;2023-02-08T03:39:31;27.30;;;13.93;;
13079;SDS011;6606;49.154;9.280;2023-02-08T03:42:17;30.57;;;13.57;;
13079;SDS011;6606;49.154;9.280;2023-02-08T03:45:04;27.67;;;14.33;;
13079;SDS011;6606;49.154;9.280;2023-02-08T03:47:50;24.50;;;13.73;;
13079;SDS011;6606;49.154;9.280;2023-02-08T03:50:36;24.90;;;13.73;;
13079;SDS011;6606;49.154;9.280;2023-02-08T03:53:21;21.17;;;13.07;;
13079;SDS011;6606;49.154;9.280;2023-02-08T03:56:06;21.90;;;13.13;;
13079;SDS011;6606;49.154;9.280;2023-02-08T03:58:51;25.07;;;15.00;;
13079;SDS011;6606;49.154;9.280;2023-02-08T04:01:40;23.47;;;13.43;;
13079;SDS011;6606;49.154;9.280;2023-02-08T04:04:25;24.73;;;13.53;;
13079;SDS011;6606;49.154;9.280;2023-02-08T04:07:09;22.60;;;13.23;;
13079;SDS011;6606;49.154;9.280;2023-02-08T04:09:51;25.17;;;14.90;;
13079;SDS011;6606;49.154;9.280;2023-02-08T04:12:34;22.17;;;13.17;;
13079;SDS011;6606;49.154;9.280;2023-02-08T04:15:16;24.20;;;13.70;;
13079;SDS011;6606;49.154;9.280;2023-02-08T04:17:58;25.20;;;14.37;;
13079;SDS011;6606;49.154;9.280;2023-02-08T04:20:40;22.90;;;13.70;;
13079;SDS011;6606;49.154;9.280;2023-02-08T04:23:22;27.00;;;14.17;;
13079;SDS011;6606;49.154;9.280;2023-02-08T04:26:03;23.57;;;12.60;;
13079;SDS011;6606;49.154;9.280;2023-02-08T04:28:48;26.33;;;13.10;;
13079;SDS011;6606;49.154;9.280;2023-02-08T04:31:29;23.43;;;13.10;;
13079;SDS011;6606;49.154;9.280;2023-02-08T04:34:11;25.33;;;13.73;;
13079;SDS011;6606;49.154;9.280;2023-02-08T04:36:53;26.47;;;14.23;;
13079;SDS011;6606;49.154;9.280;2023-02-08T04:39:34;23.63;;;13.43;;
13079;SDS011;6606;49.154;9.280;2023-02-08T04:42:16;26.50;;;14.40;;
13079;SDS011;6606;49.154;9.280;2023-02-08T04:45:00;22.23;;;13.47;;
13079;SDS011;6606;49.154;9.280;2023-02-08T04:47:41;24.73;;;14.40;;
13079;SDS011;6606;49.154;9.280;2023-02-08T04:50:23;28.60;;;15.33;;
13079;SDS011;6606;49.154;9.280;2023-02-08T04:53:05;23.10;;;13.20;;
13079;SDS011;6606;49.154;9.280;2023-02-08T04:55:46;22.33;;;13.30;;
13079;SDS011;6606;49.154;9.280;2023-02-08T04:58:28;24.70;;;13.97;;
13079;SDS011;6606;49.154;9.280;2023-02-08T05:01:12;24.60;;;13.97;;
13079;SDS011;6606;49.154;9.280;2023-02-08T05:03:55;25.00;;;13.90;;
13079;SDS011;6606;49.154;9.280;2023-02-08T05:06:37;24.20;;;13.93;;
13079;SDS011;6606;49.154;9.280;2023-02-08T05:09:18;27.07;;;15.20;;
13079;SDS011;6606;49.154;9.280;2023-02-08T05:12:00;23.70;;;14.80;;
13079;SDS011;6606;49.154;9.280;2023-02-08T05:14:42;27.37;;;14.27;;
13079;SDS011;6606;49.154;9.280;2023-02-08T05:17:24;26.70;;;13.63;;
13079;SDS011;6606;49.154;9.280;2023-02-08T05:20:06;24.67;;;14.07;;
13079;SDS011;6606;49.154;9.280;2023-02-08T05:22:49;27.63;;;14.47;;
13079;SDS011;6606;49.154;9.280;2023-02-08T05:25:31;23.13;;;14.17;;
13079;SDS011;6606;49.154;9.280;2023-02-08T05:28:12;25.43;;;14.20;;
13079;SDS011;6606;49.154;9.280;2023-02-08T05:30:54;24.60;;;14.27;;
13079;SDS011;6606;49.154;9.280;2023-02-08T05:33:37;21.10;;;12.60;;
13079;SDS011;6606;49.154;9.280;2023-02-08T05:36:19;29.20;;;14.83;;
13079;SDS011;6606;49.154;9.280;2023-02-08T05:39:02;21.37;;;12.67;;
13079;SDS011;6606;49.154;9.280;2023-02-08T05:41:44;24.93;;;14.10;;
13079;SDS011;6606;49.154;9.280;2023-02-08T05:44:26;24.37;;;13.50;;
13079;SDS011;6606;49.154;9.280;2023-02-08T05:47:07;23.03;;;13.13;;
13079;SDS011;6606;49.154;9.280;2023-02-08T05:49:50;22.80;;;14.30;;
13079;SDS011;6606;49.154;9.280;2023-02-08T05:52:32;21.37;;;13.10;;
13079;SDS011;6606;49.154;9.280;2023-02-08T05:55:14;22.47;;;13.00;;
13079;SDS011;6606;49.154;9.280;2023-02-08T05:57:56;22.60;;;13.27;;
13079;SDS011;6606;49.154;9.280;2023-02-08T06:00:37;25.00;;;13.67;;
13079;SDS011;6606;49.154;9.280;2023-02-08T06:03:19;26.43;;;14.87;;
13079;SDS011;6606;49.154;9.280;2023-02-08T06:06:02;25.73;;;14.57;;
13079;SDS011;6606;49.154;9.280;2023-02-08T06:08:45;27.40;;;15.20;;
13079;SDS011;6606;49.154;9.280;2023-02-08T06:11:26;26.57;;;14.67;;
13079;SDS011;6606;49.154;9.280;2023-02-08T06:14:08;25.67;;;15.43;;
13079;SDS011;6606;49.154;9.280;2023-02-08T06:16:50;27.83;;;14.43;;
13079;SDS011;6606;49.154;9.280;2023-02-08T06:19:32;24.43;;;14.03;;
13079;SDS011;6606;49.154;9.280;2023-02-08T06:22:14;26.73;;;15.00;;
13079;SDS011;6606;49.154;9.280;2023-02-08T06:24:56;27.53;;;14.63;;
13079;SDS011;6606;49.154;9.280;2023-02-08T06:27:38;30.53;;;15.97;;
13079;SDS011;6606;49.154;9.280;2023-02-08T06:30:19;29.43;;;15.70;;
13079;SDS011;6606;49.154;9.280;2023-02-08T06:33:01;27.83;;;14.00;;
13079;SDS011;6606;49.154;9.280;2023-02-08T06:35:43;24.47;;;14.23;;
13079;SDS011;6606;49.154;9.280;2023-02-08T06:38:27;28.17;;;14.17;;
13079;SDS011;6606;49.154;9.280;2023-02-08T06:41:08;30.70;;;14.70;;
13079;SDS011;6606;49.154;9.280;2023-02-08T06:43:50;26.07;;;14.37;;
13079;SDS011;6606;49.154;9.280;2023-02-08T06:46:32;26.57;;;15.87;;
13079;SDS011;6606;49.154;9.280;2023-02-08T06:49:14;26.07;;;14.30;;
13079;SDS011;6606;49.154;9.280;2023-02-08T06:51:55;26.17;;;14.70;;
13079;SDS011;6606;49.154;9.280;2023-02-08T06:54:38;30.07;;;16.13;;
13079;SDS011;6606;49.154;9.280;2023-02-08T06:57:20;28.37;;;16.23;;
13079;SDS011;6606;49.154;9.280;2023-02-08T07:00:02;28.83;;;15.00;;
13079;SDS011;6606;49.154;9.280;2023-02-08T07:02:44;29.07;;;14.90;;
13079;SDS011;6606;49.154;9.280;2023-02-08T07:05:26;29.80;;;16.67;;
13079;SDS011;6606;49.154;9.280;2023-02-08T07:08:08;28.83;;;15.93;;
13079;SDS011;6606;49.154;9.280;2023-02-08T07:10:51;25.87;;;16.70;;
13079;SDS011;6606;49.154;9.280;2023-02-08T07:13:33;34.23;;;16.77;;
13079;SDS011;6606;49.154;9.280;2023-02-08T07:16:15;27.33;;;15.63;;
13079;SDS011;6606;49.154;9.280;2023-02-08T07:18:58;25.27;;;15.77;;
13079;SDS011;6606;49.154;9.280;2023-02-08T07:21:39;29.57;;;16.83;;
13079;SDS011;6606;49.154;9.280;2023-02-08T07:24:21;32.87;;;18.17;;
13079;SDS011;6606;49.154;9.280;2023-02-08T07:27:05;32.07;;;18.70;;
13079;SDS011;6606;49.154;9.280;2023-02-08T07:29:48;31.77;;;19.33;;
13079;SDS011;6606;49.154;9.280;2023-02-08T07:32:29;28.73;;;16.87;;
13079;SDS011;6606;49.154;9.280;2023-02-08T07:35:11;32.50;;;18.73;;
13079;SDS011;6606;49.154;9.280;2023-02-08T07:37:53;25.67;;;15.00;;
13079;SDS011;6606;49.154;9.280;2023-02-08T07:40:34;28.30;;;17.30;;
13079;SDS011;6606;49.154;9.280;2023-02-08T07:43:18;27.27;;;16.00;;
13079;SDS011;6606;49.154;9.280;2023-02-08T07:46:09;35.23;;;20.97;;
13079;SDS011;6606;49.154;9.280;2023-02-08T07:48:52;34.80;;;21.97;;
13079;SDS011;6606;49.154;9.280;2023-02-08T07:51:33;28.27;;;18.80;;
13079;SDS011;6606;49.154;9.280;2023-02-08T07:54:15;43.73;;;23.53;;
13079;SDS011;6606;49.154;9.280;2023-02-08T07:56:57;32.63;;;20.53;;
13079;SDS011;6606;49.154;9.280;2023-02-08T07:59:40;32.83;;;18.77;;
13079;SDS011;6606;49.154;9.280;2023-02-08T08:02:22;28.73;;;15.50;;
13079;SDS011;6606;49.154;9.280;2023-02-08T08:05:04;25.80;;;16.57;;
13079;SDS011;6606;49.154;9.280;2023-02-08T08:07:46;25.93;;;15.30;;
13079;SDS011;6606;49.154;9.280;2023-02-08T08:10:28;25.47;;;15.40;;
13079;SDS011;6606;49.154;9.280;2023-02-08T08:13:09;23.33;;;13.80;;
13079;SDS011;6606;49.154;9.280;2023-02-08T08:15:52;23.20;;;13.17;;
13079;SDS011;6606;49.154;9.280;2023-02-08T08:18:34;24.37;;;14.40;;
13079;SDS011;6606;49.154;9.280;2023-02-08T08:21:16;25.20;;;14.03;;
13079;SDS011;6606;49.154;9.280;2023-02-08T08:23:57;21.77;;;13.80;;
13079;SDS011;6606;49.154;9.280;2023-02-08T08:26:39;20.87;;;13.37;;
13079;SDS011;6606;49.154;9.280;2023-02-08T08:29:21;23.30;;;13.83;;
13079;SDS011;6606;49.154;9.280;2023-02-08T08:32:05;22.90;;;13.73;;
13079;SDS011;6606;49.154;9.280;2023-02-08T08:34:47;21.93;;;12.87;;
13079;SDS011;6606;49.154;9.280;2023-02-08T08:37:29;22.63;;;13.57;;
13079;SDS011;6606;49.154;9.280;2023-02-08T08:40:11;23.47;;;13.90;;
13079;SDS011;6606;49.154;9.280;2023-02-08T08:42:53;24.30;;;13.93;;
13079;SDS011;6606;49.154;9.280;2023-02-08T08:45:34;23.70;;;14.00;;
13079;SDS011;6606;49.154;9.280;2023-02-08T08:48:18;21.43;;;13.23;;
13079;SDS011;6606;49.154;9.280;2023-02-08T08:50:59;24.03;;;14.07;;
13079;SDS011;6606;49.154;9.280;2023-02-08T08:53:41;24.37;;;14.23;;
13079;SDS011;6606;49.154;9.280;2023-02-08T08:56:23;21.10;;;13.47;;
13079;SDS011;6606;49.154;9.280;2023-02-08T08:59:05;22.57;;;14.13;;
13079;SDS011;6606;49.154;9.280;2023-02-08T09:01:47;21.87;;;14.17;;
13079;SDS011;6606;49.154;9.280;2023-02-08T09:04:30;20.37;;;12.67;;
13079;SDS011;6606;49.154;9.280;2023-02-08T09:07:11;23.43;;;14.03;;
13079;SDS011;6606;49.154;9.280;2023-02-08T09:09:53;21.87;;;14.10;;
13079;SDS011;6606;49.154;9.280;2023-02-08T09:12:35;22.57;;;13.47;;
13079;SDS011;6606;49.154;9.280;2023-02-08T09:15:17;22.57;;;13.80;;
13079;SDS011;6606;49.154;9.280;2023-02-08T09:17:59;22.43;;;13.70;;
13079;SDS011;6606;49.154;9.280;2023-02-08T09:20:42;21.87;;;12.83;;
13079;SDS011;6606;49.154;9.280;2023-02-08T09:23:23;20.70;;;12.70;;
13079;SDS011;6606;49.154;9.280;2023-02-08T09:26:08;20.17;;;13.07;;
13079;SDS011;6606;49.154;9.280;2023-02-08T09:28:51;19.27;;;12.70;;
13079;SDS011;6606;49.154;9.280;2023-02-08T09:31:33;22.17;;;13.23;;
13079;SDS011;6606;49.154;9.280;2023-02-08T09:34:17;21.43;;;13.00;;
13079;SDS011;6606;49.154;9.280;2023-02-08T09:36:59;19.37;;;12.97;;
13079;SDS011;6606;49.154;9.280;2023-02-08T09:39:41;22.30;;;14.17;;
13079;SDS011;6606;49.154;9.280;2023-02-08T09:42:26;22.23;;;13.70;;
13079;SDS011;6606;49.154;9.280;2023-02-08T09:48:20;18.87;;;12.43;;
13079;SDS011;6606;49.154;9.280;2023-02-08T09:51:05;17.80;;;12.40;;
13079;SDS011;6606;49.154;9.280;2023-02-08T09:53:56;18.13;;;12.53;;
13079;SDS011;6606;49.154;9.280;2023-02-08T09:56:42;20.27;;;12.93;;
13079;SDS011;6606;49.154;9.280;2023-02-08T09:59:25;18.37;;;12.47;;
13079;SDS011;6606;49.154;9.280;2023-02-08T10:02:12;19.33;;;11.77;;
13079;SDS011;6606;49.154;9.280;2023-02-08T10:05:00;17.77;;;12.23;;
13079;SDS011;6606;49.154;9.280;2023-02-08T10:07:45;19.13;;;12.67;;
13079;SDS011;6606;49.154;9.280;2023-02-08T10:10:32;19.27;;;10.63;;
13079;SDS011;6606;49.154;9.280;2023-02-08T10:13:26;20.23;;;12.20;;
13079;SDS011;6606;49.154;9.280;2023-02-08T10:16:24;18.00;;;10.63;;
13079;SDS011;6606;49.154;9.280;2023-02-08T10:19:23;14.53;;;10.50;;
13079;SDS011;6606;49.154;9.280;2023-02-08T10:22:18;15.97;;;10.77;;
13079;SDS011;6606;49.154;9.280;2023-02-08T10:25:19;14.97;;;9.87;;
13079;SDS011;6606;49.154;9.280;2023-02-08T10:28:25;16.73;;;10.27;;
13079;SDS011;6606;49.154;9.280;2023-02-08T10:31:18;16.30;;;9.97;;
13079;SDS011;6606;49.154;9.280;2023-02-08T10:34:09;15.83;;;10.67;;
13079;SDS011;6606;49.154;9.280;2023-02-08T10:37:00;17.30;;;10.93;;
13079;SDS011;6606;49.154;9.280;2023-02-08T10:39:51;14.10;;;10.17;;
13079;SDS011;6606;49.154;9.280;2023-02-08T10:42:34;15.03;;;10.03;;
13079;SDS011;6606;49.154;9.280;2023-02-08T10:45:21;16.53;;;10.83;;
13079;SDS011;6606;49.154;9.280;2023-02-08T10:48:08;15.77;;;9.80;;
13079;SDS011;6606;49.154;9.280;2023-02-08T10:50:55;15.53;;;9.93;;
13079;SDS011;6606;49.154;9.280;2023-02-08T10:53:37;13.63;;;9.83;;
13079;SDS011;6606;49.154;9.280;2023-02-08T10:59:23;18.23;;;11.10;;
13079;SDS011;6606;49.154;9.280;2023-02-08T11:02:12;18.40;;;10.57;;
13079;SDS011;6606;49.154;9.280;2023-02-08T11:05:02;27.97;;;16.57;;
13079;SDS011;6606;49.154;9.280;2023-02-08T11:07:46;45.67;;;25.47;;
13079;SDS011;6606;49.154;9.280;2023-02-08T11:10:28;25.33;;;13.03;;
13079;SDS011;6606;49.154;9.280;2023-02-08T11:13:14;36.63;;;20.03;;
13079;SDS011;6606;49.154;9.280;2023-02-08T11:15:59;33.53;;;20.20;;
13079;SDS011;6606;49.154;9.280;2023-02-08T11:18:47;15.70;;;10.00;;
13079;SDS011;6606;49.154;9.280;2023-02-08T11:21:32;38.00;;;23.30;;
13079;SDS011;6606;49.154;9.280;2023-02-08T11:24:21;26.90;;;14.47;;
13079;SDS011;6606;49.154;9.280;2023-02-08T11:27:14;14.37;;;9.30;;
13079;SDS011;6606;49.154;9.280;2023-02-08T11:30:09;24.73;;;15.03;;
13079;SDS011;6606;49.154;9.280;2023-02-08T11:33:15;41.97;;;23.40;;
13079;SDS011;6606;49.154;9.280;2023-02-08T11:36:02;13.57;;;9.17;;
13079;SDS011;6606;49.154;9.280;2023-02-08T11:38:46;12.57;;;9.13;;
13079;SDS011;6606;49.154;9.280;2023-02-08T11:41:28;22.70;;;14.10;;
13079;SDS011;6606;49.154;9.280;2023-02-08T11:44:11;15.80;;;10.87;;
13079;SDS011;6606;49.154;9.280;2023-02-08T11:46:58;16.67;;;11.80;;
13079;SDS011;6606;49.154;9.280;2023-02-08T11:49:42;12.13;;;8.47;;
13079;SDS011;6606;49.154;9.280;2023-02-08T11:52:33;12.77;;;9.03;;
13079;SDS011;6606;49.154;9.280;2023-02-08T11:55:21;12.27;;;8.00;;
13079;SDS011;6606;49.154;9.280;2023-02-08T11:58:22;12.73;;;8.63;;
13079;SDS011;6606;49.154;9.280;2023-02-08T12:01:09;10.67;;;7.80;;
13079;SDS011;6606;49.154;9.280;2023-02-08T12:03:59;13.43;;;8.27;;
13079;SDS011;6606;49.154;9.280;2023-02-08T12:06:51;12.13;;;8.23;;
13079;SDS011;6606;49.154;9.280;2023-02-08T12:09:58;12.33;;;8.10;;
13079;SDS011;6606;49.154;9.280;2023-02-08T12:16:35;11.57;;;7.87;;
13079;SDS011;6606;49.154;9.280;2023-02-08T12:19:45;11.60;;;8.40;;
13079;SDS011;6606;49.154;9.280;2023-02-08T12:22:51;12.07;;;7.70;;
13079;SDS011;6606;49.154;9.280;2023-02-08T12:25:43;11.20;;;7.83;;
13079;SDS011;6606;49.154;9.280;2023-02-08T12:28:37;10.73;;;8.20;;
13079;SDS011;6606;49.154;9.280;2023-02-08T12:31:51;12.10;;;7.50;;
13079;SDS011;6606;49.154;9.280;2023-02-08T12:34:51;13.13;;;8.17;;
13079;SDS011;6606;49.154;9.280;2023-02-08T12:37:44;12.63;;;7.90;;
13079;SDS011;6606;49.154;9.280;2023-02-08T12:40:51;12.73;;;8.47;;
13079;SDS011;6606;49.154;9.280;2023-02-08T12:43:42;14.17;;;8.47;;
13079;SDS011;6606;49.154;9.280;2023-02-08T12:49:38;13.30;;;9.00;;
13079;SDS011;6606;49.154;9.280;2023-02-08T12:52:32;12.87;;;8.47;;
13079;SDS011;6606;49.154;9.280;2023-02-08T12:55:20;11.90;;;8.53;;
13079;SDS011;6606;49.154;9.280;2023-02-08T12:58:18;11.93;;;8.45;;
13079;SDS011;6606;49.154;9.280;2023-02-08T13:01:06;10.63;;;7.83;;
13079;SDS011;6606;49.154;9.280;2023-02-08T13:03:53;11.60;;;7.70;;
13079;SDS011;6606;49.154;9.280;2023-02-08T13:06:41;11.80;;;7.83;;
13079;SDS011;6606;49.154;9.280;2023-02-08T13:09:28;12.73;;;7.90;;
13079;SDS011;6606;49.154;9.280;2023-02-08T13:12:20;11.43;;;7.30;;
13079;SDS011;6606;49.154;9.280;2023-02-08T13:15:11;10.33;;;7.17;;
13079;SDS011;6606;49.154;9.280;2023-02-08T13:18:00;13.00;;;7.80;;
13079;SDS011;6606;49.154;9.280;2023-02-08T13:20:51;10.60;;;7.60;;
13079;SDS011;6606;49.154;9.280;2023-02-08T13:23:37;10.20;;;7.30;;
13079;SDS011;6606;49.154;9.280;2023-02-08T13:26:22;11.47;;;7.60;;
13079;SDS011;6606;49.154;9.280;2023-02-08T13:29:13;10.27;;;7.07;;
13079;SDS011;6606;49.154;9.280;2023-02-08T13:32:00;11.10;;;6.83;;
13079;SDS011;6606;49.154;9.280;2023-02-08T13:34:45;10.03;;;6.87;;
13079;SDS011;6606;49.154;9.280;2023-02-08T13:37:31;11.70;;;7.33;;
13079;SDS011;6606;49.154;9.280;2023-02-08T13:40:17;10.53;;;6.87;;
13079;SDS011;6606;49.154;9.280;2023-02-08T13:43:01;9.63;;;6.97;;
13079;SDS011;6606;49.154;9.280;2023-02-08T13:45:46;13.17;;;7.03;;
13079;SDS011;6606;49.154;9.280;2023-02-08T13:48:41;12.57;;;7.40;;
13079;SDS011;6606;49.154;9.280;2023-02-08T13:51:49;10.50;;;6.93;;
13079;SDS011;6606;49.154;9.280;2023-02-08T13:54:32;10.43;;;6.93;;
13079;SDS011;6606;49.154;9.280;2023-02-08T14:00:30;11.33;;;7.40;;
13079;SDS011;6606;49.154;9.280;2023-02-08T14:03:19;10.27;;;6.53;;
13079;SDS011;6606;49.154;9.280;2023-02-08T14:06:03;10.40;;;6.73;;
13079;SDS011;6606;49.154;9.280;2023-02-08T14:08:51;12.10;;;7.23;;
13079;SDS011;6606;49.154;9.280;2023-02-08T14:11:38;10.43;;;6.40;;
13079;SDS011;6606;49.154;9.280;2023-02-08T14:14:26;7.77;;;5.90;;
13079;SDS011;6606;49.154;9.280;2023-02-08T14:17:16;8.77;;;6.50;;
13079;SDS011;6606;49.154;9.280;2023-02-08T14:20:00;9.70;;;6.50;;
13079;SDS011;6606;49.154;9.280;2023-02-08T14:22:49;9.13;;;6.47;;
13079;SDS011;6606;49.154;9.280;2023-02-08T14:25:40;9.47;;;6.30;;
13079;SDS011;6606;49.154;9.280;2023-02-08T14:28:24;8.40;;;6.00;;
13079;SDS011;6606;49.154;9.280;2023-02-08T14:31:09;8.33;;;6.07;;
13079;SDS011;6606;49.154;9.280;2023-02-08T14:33:53;8.97;;;6.13;;
13079;SDS011;6606;49.154;9.280;2023-02-08T14:36:36;11.57;;;6.77;;
13079;SDS011;6606;49.154;9.280;2023-02-08T14:39:24;8.40;;;6.40;;
13079;SDS011;6606;49.154;9.280;2023-02-08T14:42:08;10.13;;;6.70;;
13079;SDS011;6606;49.154;9.280;2023-02-08T14:44:56;9.73;;;6.60;;
13079;SDS011;6606;49.154;9.280;2023-02-08T14:50:56;10.63;;;6.90;;
13079;SDS011;6606;49.154;9.280;2023-02-08T14:53:57;12.10;;;6.93;;
13079;SDS011;6606;49.154;9.280;2023-02-08T14:56:52;11.67;;;6.90;;
13079;SDS011;6606;49.154;9.280;2023-02-08T14:59:38;10.03;;;7.20;;
13079;SDS011;6606;49.154;9.280;2023-02-08T15:02:22;13.13;;;7.63;;
13079;SDS011;6606;49.154;9.280;2023-02-08T15:05:18;11.33;;;7.77;;
13079;SDS011;6606;49.154;9.280;2023-02-08T15:08:01;9.97;;;6.97;;
13079;SDS011;6606;49.154;9.280;2023-02-08T15:10:44;11.20;;;7.57;;
13079;SDS011;6606;49.154;9.280;2023-02-08T15:13:28;12.53;;;7.93;;
13079;SDS011;6606;49.154;9.280;2023-02-08T15:16:10;13.27;;;7.50;;
13079;SDS011;6606;49.154;9.280;2023-02-08T15:18:53;13.30;;;7.90;;
13079;SDS011;6606;49.154;9.280;2023-02-08T15:21:34;10.03;;;6.93;;
13079;SDS011;6606;49.154;9.280;2023-02-08T15:24:18;12.13;;;7.93;;
13079;SDS011;6606;49.154;9.280;2023-02-08T15:27:01;11.83;;;7.87;;
13079;SDS011;6606;49.154;9.280;2023-02-08T15:29:44;10.73;;;7.70;;
13079;SDS011;6606;49.154;9.280;2023-02-08T15:32:27;10.83;;;7.30;;
13079;SDS011;6606;49.154;9.280;2023-02-08T15:35:12;13.07;;;7.90;;
13079;SDS011;6606;49.154;9.280;2023-02-08T15:37:59;12.23;;;8.27;;
13079;SDS011;6606;49.154;9.280;2023-02-08T15:40:57;14.37;;;8.10;;
13079;SDS011;6606;49.154;9.280;2023-02-08T15:43:41;11.80;;;7.70;;
13079;SDS011;6606;49.154;9.280;2023-02-08T15:46:25;13.90;;;7.83;;
13079;SDS011;6606;49.154;9.280;2023-02-08T15:49:08;12.60;;;7.80;;
13079;SDS011;6606;49.154;9.280;2023-02-08T15:51:54;12.00;;;7.57;;
13079;SDS011;6606;49.154;9.280;2023-02-08T15:54:37;13.03;;;8.10;;
13079;SDS011;6606;49.154;9.280;2023-02-08T15:57:21;11.97;;;7.67;;
13079;SDS011;6606;49.154;9.280;2023-02-08T16:00:14;12.43;;;8.70;;
13079;SDS011;6606;49.154;9.280;2023-02-08T16:03:01;12.63;;;8.13;;
13079;SDS011;6606;49.154;9.280;2023-02-08T16:05:47;11.93;;;8.00;;
13079;SDS011;6606;49.154;9.280;2023-02-08T16:08:30;14.30;;;8.20;;
13079;SDS011;6606;49.154;9.280;2023-02-08T16:11:14;12.87;;;8.30;;
13079;SDS011;6606;49.154;9.280;2023-02-08T16:14:02;15.20;;;8.47;;
13079;SDS011;6606;49.154;9.280;2023-02-08T16:16:49;12.97;;;8.47;;
13079;SDS011;6606;49.154;9.280;2023-02-08T16:19:34;15.50;;;8.40;;
13079;SDS011;6606;49.154;9.280;2023-02-08T16:22:22;12.37;;;8.67;;
13079;SDS011;6606;49.154;9.280;2023-02-08T16:25:21;14.70;;;8.77;;
13079;SDS011;6606;49.154;9.280;2023-02-08T16:28:03;15.20;;;8.77;;
13079;SDS011;6606;49.154;9.280;2023-02-08T16:30:46;12.97;;;8.30;;
13079;SDS011;6606;49.154;9.280;2023-02-08T16:33:27;14.20;;;9.23;;
13079;SDS011;6606;49.154;9.280;2023-02-08T16:36:18;14.70;;;9.07;;
13079;SDS011;6606;49.154;9.280;2023-02-08T16:39:20;13.93;;;8.93;;
13079;SDS011;6606;49.154;9.280;2023-02-08T16:42:30;15.53;;;8.67;;
13079;SDS011;6606;49.154;9.280;2023-02-08T16:45:16;13.10;;;8.93;;
13079;SDS011;6606;49.154;9.280;2023-02-08T16:47:59;15.50;;;9.47;;
13079;SDS011;6606;49.154;9.280;2023-02-08T16:50:42;12.10;;;8.63;;
13079;SDS011;6606;49.154;9.280;2023-02-08T16:53:25;12.43;;;8.50;;
13079;SDS011;6606;49.154;9.280;2023-02-08T16:56:09;15.27;;;8.90;;
13079;SDS011;6606;49.154;9.280;2023-02-08T16:58:51;12.03;;;8.33;;